Casablanca, Morocco
Current Conditions -  °F | °C
As of 3:00 PM on Saturday 22 Nov 2014 (Local Time) from GMMC Reporting Station
Scattered Clouds Scattered Clouds  
Wind Chill: 22°   Ceiling: Unl
Heat Index: 22°   Visibility: 6mi
Dew Point: 17°   Wind: 7mph
Humidity: 73%   Direction: 280°W
Pressure: 29.68"   Gusts: 20mph
Location:  33.6°N, 7.62°W
Report Text: GMMC 221400Z 28006G17KT 9999 SCT016 SCT026 22/17 Q1005
Loading
Personal Weather Stations






























Interactive Weather Map New forecast layout! Learn more

10-Day Weather Forecast

Advertisements
Track Severe Weather on mobile